Southwestern Research Station, Arizona Weather observations

Data are for 10 minute period ending at time listed.
 Day   Time   Solar   Ave.   Ave.  Ave.  Vector  Max.   Baro.   Total    
  of    of     Rad.   Air    Rel.  Wind   Wind   Wind  Press.  Precip.   
Year   Day            Temp.  Hum.  Speed  Dir.   Gust                    
2026   (PST)  Kw/m2    F      %     mph   deg.    mph    mb.     in.     
-------------------------------------------------------------------------
 127    8:00   0.47   61.6    30    0.7   137     2.9   835.1    0.00 
 127    8:10   0.51   64.2    25    0.8   137     3.0   835.0    0.00 
 127    8:20   0.54   65.1    24    2.3   110     6.9   835.4    0.00 
 127    8:30   0.57   65.4    22    2.9   104     8.2   835.2    0.00 
 127    8:40   0.60   65.8    23    3.0   108     7.0   835.2    0.00 
 127    8:50   0.63   65.7    23    3.6    99     8.6   835.2    0.00 
 127    9:00   0.66   66.7    22    3.0   108     9.0   835.2    0.00 
 127    9:10   0.69   66.5    22    2.6   135     8.2   835.1    0.00 
 127    9:20   0.71   67.4    21    2.9   121     9.4   835.0    0.00 
 127    9:30   0.74   68.6    20    3.0    81    10.4   834.9    0.00 
 127    9:40   0.77   69.5    19    3.5    89    10.8   834.8    0.00 
 127    9:50   0.73   69.2    20    2.4    93     7.0   834.7    0.00 
 127   10:00   0.81   69.5    19    4.2    86    10.5   834.6    0.00 
 127   10:10   0.83   70.2    18    3.4    94    10.0   834.6    0.00 
 127   10:20   0.85   70.5    18    3.2    86     9.0   834.6    0.00 
 127   10:30   0.87   71.0    18    2.4   119     9.5   834.6    0.00 
 127   10:40   0.88   71.2    17    3.7    95    12.5   834.6    0.00 
 127   10:50   0.90   71.0    17    2.6   131     8.0   834.5    0.00 
 127   11:00   0.91   71.5    16    3.3    76     9.3   834.5    0.00 
 127   11:10   0.93   72.0    17    3.1    67     9.6   834.4    0.00 
 127   11:20   0.93   72.8    17    2.2    98     8.9   834.3    0.00 
 127   11:30   0.94   72.5    16    2.9    90    12.3   834.2    0.00 
 127   11:40   0.94   72.9    16    3.4   110    10.3   834.1    0.00 
 127   11:50   0.95   72.8    16    2.5   175     7.9   834.0    0.00 
 127   12:00   0.95   72.3    16    2.3   118     7.3   834.0    0.00 
 127   12:10   0.96   72.9    16    3.3   117     7.5   833.9    0.00 
 127   12:20   0.95   71.8    16    3.8    93    12.3   833.8    0.00 
 127   12:30   0.97   73.1    16    2.4   171    10.2   833.6    0.00 
 127   12:40   0.96   73.3    16    1.9    96    12.6   833.4    0.00 
 127   12:50   0.96   75.4    16    4.3    88    12.9   833.3    0.00 
 127   13:00   0.95   75.3    15    2.6   100     8.3   833.2    0.00 
 127   13:10   0.94   75.3    15    3.2    82     7.3   833.1    0.00 
 127   13:20   0.91   75.9    15    3.6    65    11.5   832.9    0.00 
 127   13:30   0.83   73.9    15    2.5   103     6.4   832.9    0.00 
 127   13:40   0.93   75.7    15    1.6    34     6.4   832.7    0.00 
 127   13:50   0.92   77.4    14    3.8    75    12.0   832.6    0.00 
 127   14:00   0.93   77.2    14    2.4    48    11.2   832.5    0.00 
 127   14:10   0.90   77.4    14    2.6    80     8.4   832.2    0.00 
 127   14:20   0.90   77.6    14    3.8    76     9.9   832.2    0.00 
 127   14:30   0.90   77.7    14    2.8   109     8.5   832.1    0.00 
 127   14:40   0.69   74.8    14    3.8   167    10.6   832.0    0.00 
 127   14:50   0.56   75.3    14    2.1   240     5.7   831.9    0.00 
 127   15:00   0.81   75.3    12    2.8   175     8.8   831.8    0.00 
 127   15:10   0.73   76.6    12    3.1   189     9.4   831.6    0.00 
 127   15:20   0.57   76.0    12    2.3   225    10.1   831.6    0.00 
 127   15:30   0.71   76.5    12    2.6   214     8.6   831.6    0.00 
 127   15:40   0.69   77.0    12    2.0   245     5.9   831.5    0.00 
 127   15:50   0.66   77.3    12    2.2   307     6.9   831.4    0.00 
 127   16:00   0.64   78.5    11    2.1    30     4.6   831.3    0.00 
 127   16:10   0.60   77.8    12    1.8   337     5.4   831.2    0.00 
 127   16:20   0.57   77.5    12    0.9     7     4.8   831.1    0.00 
 127   16:30   0.58   77.8    12    2.1   308     6.7   831.1    0.00 
 127   16:40   0.23   75.4    13    2.1   173     4.2   831.1    0.00 
 127   16:50   0.07   73.4    14    1.5   144     8.0   831.2    0.00 
 127   17:00   0.05   72.6    15    0.9    95     4.1   831.3    0.00 
 127   17:10   0.03   72.1    14    2.8    71     6.7   831.4    0.00 
 127   17:20   0.03   71.6    14    5.1    87    21.5   831.7    0.00 
 127   17:30   0.03   70.6    14    4.6   147    13.1   832.2    0.00 
 127   17:40   0.04   69.4    17    3.3   259    11.2   832.2    0.00 
 127   17:50   0.04   68.8    18    2.0   238     9.1   832.2    0.00 
 127   18:00   0.03   67.9    20    1.7   201     7.9   832.1    0.00 
 127   18:10   0.03   67.2    21    0.7   253     3.7   832.2    0.00 
 127   18:20   0.03   66.6    23    0.0     0     0.0   832.3    0.00 
 127   18:30   0.02   65.5    25    0.0     0     0.0   832.3    0.00 
 127   18:40   0.01   64.4    28    0.0     0     0.0   832.4    0.00 
 127   18:50   0.01   63.8    30    0.0     0     0.0   832.5    0.00 
 127   19:00   0.00   62.7    31    0.2   257     2.7   832.7    0.00 
 127   19:10   0.00   62.2    31    0.4   301     2.8   832.9    0.00 
 127   19:20   0.00   62.5    31    0.6   288     3.2   832.9    0.00 
 127   19:30   0.00   61.9    31    0.9   303     3.9   832.9    0.00 
 127   19:40   0.00   61.6    30    0.4   325     2.9   832.9    0.00 
 127   19:50   0.00   59.8    35    0.3   274     1.8   833.0    0.00 
 127   20:00   0.00   57.7    38    0.3   268     1.4   833.1    0.00 
 127   20:10   0.00   56.2    40    0.2   272     2.9   833.1    0.00 
 127   20:20   0.00   55.1    42    0.8   270     4.2   833.2    0.00 
 127   20:30   0.00   54.8    41    0.2   247     1.6   833.2    0.00 
 127   20:40   0.00   53.5    44    0.1   305     1.0   833.3    0.00 
 127   20:50   0.00   53.4    44    0.0     0     0.0   833.3    0.00 
 127   21:00   0.00   52.2    46    0.4   258     2.3   833.5    0.00 
 127   21:10   0.00   51.8    47    0.1   181     1.0   833.7    0.00 
 127   21:20   0.00   51.1    49    0.5   265     2.6   833.7    0.00 
 127   21:30   0.00   50.7    49    0.4   271     1.7   833.6    0.00 
 127   21:40   0.00   50.4    50    0.0   276     0.7   833.7    0.00 
 127   21:50   0.00   49.7    52    0.1   279     0.8   833.7    0.00 
 127   22:00   0.00   48.9    53    0.0     0     0.0   833.6    0.00 
 127   22:10   0.00   48.1    55    0.3   267     2.0   833.7    0.00 
 127   22:20   0.00   47.6    56    0.4   254     2.2   833.7    0.00 
 127   22:30   0.00   47.5    57    0.0     0     0.0   833.7    0.00 
 127   22:40   0.00   46.8    58    0.8   262     2.6   833.8    0.00 
 127   22:50   0.00   47.0    57    0.2   292     2.0   833.8    0.00 
 127   23:00   0.00   46.1    59    0.1   278     1.8   833.9    0.00 
 127   23:10   0.00   45.7    61    0.2   253     1.3   833.9    0.00 
 127   23:20   0.00   45.8    61    0.2   258     2.0   833.9    0.00 
 127   23:30   0.00   45.5    61    0.3   267     2.4   833.9    0.00 
 127   23:40   0.00   45.5    62    0.2   257     1.6   833.8    0.00 
 127   23:50   0.00   45.1    63    0.7   264     3.1   833.8    0.00 
 128    0:00   0.00   45.2    63    0.0     0     0.0   833.8    0.00 
 128    0:10   0.00   44.7    64    0.1   234     1.8   833.8    0.00 
 128    0:20   0.00   44.6    62    0.2   276     2.3   833.7    0.00 
 128    0:30   0.00   45.3    61    1.0   286     3.1   833.7    0.00 
 128    0:40   0.00   46.4    57    0.1   267     1.7   833.6    0.00 
 128    0:50   0.00   45.2    60    0.0   256     0.9   833.5    0.00 
 128    1:00   0.00   45.1    62    0.0     0     0.0   833.5    0.00 
 128    1:10   0.00   44.8    63    0.0   219     0.6   833.4    0.00 
 128    1:20   0.00   44.0    65    0.0   306     0.4   833.3    0.00 
 128    1:30   0.00   43.8    66    0.4   266     2.6   833.2    0.00 
 128    1:40   0.00   43.7    66    0.7   277     3.9   833.2    0.00 
 128    1:50   0.00   43.7    66    0.6   276     3.1   833.1    0.00 
 128    2:00   0.00   43.4    66    1.0   269     3.3   833.0    0.00 
 128    2:10   0.00   43.3    67    0.5   278     2.2   833.0    0.00 
 128    2:20   0.00   43.1    67    0.5   279     3.7   833.0    0.00 
 128    2:30   0.00   43.5    66    0.3   261     3.0   832.9    0.00 
 128    2:40   0.00   42.6    68    0.3   243     2.6   832.9    0.00 
 128    2:50   0.00   42.9    67    1.0   280     3.2   832.9    0.00 
 128    3:00   0.00   44.2    62    0.2   341     1.2   832.8    0.00 
 128    3:10   0.00   45.3    60    0.1   301     1.5   832.9    0.00 
 128    3:20   0.00   43.5    64    0.3   326     2.0   832.9    0.00 
 128    3:30   0.00   43.3    64    0.4   323     2.8   833.0    0.00 
 128    3:40   0.00   43.4    62    0.7   274     3.0   833.0    0.00 
 128    3:50   0.00   42.5    66    0.0   256     0.2   833.0    0.00 
 128    4:00   0.00   41.7    67    0.1     9     1.9   833.0    0.00 
 128    4:10   0.00   41.5    67    0.3   285     2.7   833.1    0.00 
 128    4:20   0.00   41.3    68    0.2   280     2.0   833.1    0.00 
 128    4:30   0.00   41.3    66    0.1   347     1.2   833.2    0.00 
 128    4:40   0.00   41.1    68    0.3   305     2.0   833.2    0.00 
 128    4:50   0.00   40.7    68    0.0   276     1.5   833.2    0.00 
 128    5:00   0.00   40.4    68    0.4   272     3.6   833.2    0.00 
 128    5:10   0.00   40.3    69    0.1   269     1.6   833.2    0.00 
 128    5:20   0.01   40.0    70    0.0     0     0.0   833.2    0.00 
 128    5:30   0.01   39.8    70    0.1   280     1.7   833.4    0.00 
 128    5:40   0.01   39.7    70    0.1   304     1.4   833.5    0.00 
 128    5:50   0.01   39.9    70    0.1   350     1.5   833.6    0.00 
 128    6:00   0.01   39.9    70    0.1   252     1.3   833.8    0.00 
 128    6:10   0.02   40.0    71    0.0     0     0.0   833.9    0.00 
 128    6:20   0.03   40.7    72    0.0     0     0.0   833.9    0.00 
 128    6:30   0.09   41.8    70    0.0    10     0.6   833.9    0.00 
 128    6:40   0.19   43.9    66    0.1    34     1.5   833.9    0.00 
 128    6:50   0.23   45.8    65    0.0   304     0.9   833.9    0.00 
 128    7:00   0.26   48.5    58    0.3    29     1.8   833.9    0.00 
 128    7:10   0.30   52.7    52    0.4    34     2.0   833.9    0.00 
 128    7:20   0.33   57.9    41    0.3    40     3.1   833.9    0.00 
 128    7:30   0.37   61.5    42    0.8    91     3.1   834.0    0.00 
 128    7:40   0.41   64.3    36    0.9   102     4.2   834.1    0.00 
 128    7:50   0.44   67.5    23    1.1    59     4.7   834.3    0.00 

Return to Southwestern Research Station graphs page.


Western Regional Climate Center,wrcc@dri.edu